sensor_id;sensor_type;location;lat;lon;timestamp;P1;durP1;ratioP1;P2;durP2;ratioP2
75554;SDS011;66087;53.126;17.960;2023-05-10T14:44:12;6.40;;;4.30;;
75554;SDS011;66087;53.126;17.960;2023-05-10T14:48:48;9.10;;;4.60;;
75554;SDS011;66087;53.126;17.960;2023-05-10T14:51:14;7.20;;;4.60;;
75554;SDS011;66087;53.126;17.960;2023-05-10T14:53:42;7.10;;;4.70;;
75554;SDS011;66087;53.126;17.960;2023-05-10T14:56:11;7.50;;;4.00;;
75554;SDS011;66087;53.126;17.960;2023-05-10T14:58:40;6.80;;;4.10;;
75554;SDS011;66087;53.126;17.960;2023-05-10T15:01:07;7.40;;;4.50;;
75554;SDS011;66087;53.126;17.960;2023-05-10T15:03:36;6.90;;;4.40;;
75554;SDS011;66087;53.126;17.960;2023-05-10T15:06:03;5.60;;;4.50;;
75554;SDS011;66087;53.126;17.960;2023-05-10T15:08:30;6.30;;;4.00;;
75554;SDS011;66087;53.126;17.960;2023-05-10T15:10:59;5.70;;;3.80;;
75554;SDS011;66087;53.126;17.960;2023-05-10T15:13:26;5.60;;;4.60;;
75554;SDS011;66087;53.126;17.960;2023-05-10T15:15:53;8.50;;;4.70;;
75554;SDS011;66087;53.126;17.960;2023-05-10T15:18:21;8.60;;;4.70;;
75554;SDS011;66087;53.126;17.960;2023-05-10T15:20:48;6.40;;;4.60;;
75554;SDS011;66087;53.126;17.960;2023-05-10T15:23:15;6.20;;;4.30;;
75554;SDS011;66087;53.126;17.960;2023-05-10T15:25:41;7.40;;;4.10;;
75554;SDS011;66087;53.126;17.960;2023-05-10T15:28:08;8.80;;;4.40;;
75554;SDS011;66087;53.126;17.960;2023-05-10T15:30:35;5.70;;;4.60;;
75554;SDS011;66087;53.126;17.960;2023-05-10T15:33:02;6.80;;;3.70;;
75554;SDS011;66087;53.126;17.960;2023-05-10T15:35:29;6.80;;;4.10;;
75554;SDS011;66087;53.126;17.960;2023-05-10T15:37:56;6.80;;;4.90;;
75554;SDS011;66087;53.126;17.960;2023-05-10T15:40:23;7.70;;;4.80;;
75554;SDS011;66087;53.126;17.960;2023-05-10T15:42:49;6.00;;;4.40;;
75554;SDS011;66087;53.126;17.960;2023-05-10T15:45:16;4.50;;;3.90;;
75554;SDS011;66087;53.126;17.960;2023-05-10T15:47:43;6.20;;;4.20;;
75554;SDS011;66087;53.126;17.960;2023-05-10T15:50:12;7.40;;;4.50;;
75554;SDS011;66087;53.126;17.960;2023-05-10T15:52:38;5.20;;;4.60;;
75554;SDS011;66087;53.126;17.960;2023-05-10T15:55:05;7.10;;;4.60;;
75554;SDS011;66087;53.126;17.960;2023-05-10T15:57:38;5.20;;;4.50;;
75554;SDS011;66087;53.126;17.960;2023-05-10T16:00:07;5.00;;;4.20;;
75554;SDS011;66087;53.126;17.960;2023-05-10T16:02:39;6.70;;;4.30;;
75554;SDS011;66087;53.126;17.960;2023-05-10T16:05:09;6.10;;;4.40;;
75554;SDS011;66087;53.126;17.960;2023-05-10T16:07:36;6.20;;;4.20;;
75554;SDS011;66087;53.126;17.960;2023-05-10T16:10:04;6.10;;;3.90;;
75554;SDS011;66087;53.126;17.960;2023-05-10T16:12:31;5.00;;;3.90;;
75554;SDS011;66087;53.126;17.960;2023-05-10T16:14:58;6.40;;;3.90;;
75554;SDS011;66087;53.126;17.960;2023-05-10T16:17:25;7.90;;;3.90;;
75554;SDS011;66087;53.126;17.960;2023-05-10T16:19:52;5.30;;;4.30;;
75554;SDS011;66087;53.126;17.960;2023-05-10T16:22:20;5.70;;;4.00;;
75554;SDS011;66087;53.126;17.960;2023-05-10T16:24:47;5.20;;;4.00;;
75554;SDS011;66087;53.126;17.960;2023-05-10T16:27:14;4.70;;;3.80;;
75554;SDS011;66087;53.126;17.960;2023-05-10T16:29:43;8.40;;;4.00;;
75554;SDS011;66087;53.126;17.960;2023-05-10T16:32:22;6.30;;;4.10;;
75554;SDS011;66087;53.126;17.960;2023-05-10T16:34:49;5.10;;;4.10;;
75554;SDS011;66087;53.126;17.960;2023-05-10T16:37:16;7.70;;;4.20;;
75554;SDS011;66087;53.126;17.960;2023-05-10T16:39:42;4.60;;;4.00;;
75554;SDS011;66087;53.126;17.960;2023-05-10T16:42:09;5.60;;;3.80;;
75554;SDS011;66087;53.126;17.960;2023-05-10T16:44:36;5.30;;;3.80;;
75554;SDS011;66087;53.126;17.960;2023-05-10T16:47:02;5.60;;;3.70;;
75554;SDS011;66087;53.126;17.960;2023-05-10T16:49:29;4.50;;;3.30;;
75554;SDS011;66087;53.126;17.960;2023-05-10T16:51:56;5.60;;;3.90;;
75554;SDS011;66087;53.126;17.960;2023-05-10T16:54:23;5.10;;;4.50;;
75554;SDS011;66087;53.126;17.960;2023-05-10T16:56:50;7.30;;;4.10;;
75554;SDS011;66087;53.126;17.960;2023-05-10T16:59:20;6.60;;;3.50;;
75554;SDS011;66087;53.126;17.960;2023-05-10T17:01:47;5.00;;;3.30;;
75554;SDS011;66087;53.126;17.960;2023-05-10T17:04:14;6.10;;;3.50;;
75554;SDS011;66087;53.126;17.960;2023-05-10T17:06:43;5.70;;;3.20;;
75554;SDS011;66087;53.126;17.960;2023-05-10T17:09:09;6.20;;;3.50;;
75554;SDS011;66087;53.126;17.960;2023-05-10T17:11:39;5.70;;;2.90;;
75554;SDS011;66087;53.126;17.960;2023-05-10T17:14:07;7.10;;;4.10;;
75554;SDS011;66087;53.126;17.960;2023-05-10T17:16:34;6.20;;;3.50;;
75554;SDS011;66087;53.126;17.960;2023-05-10T17:19:03;5.10;;;3.80;;
75554;SDS011;66087;53.126;17.960;2023-05-10T17:21:30;5.40;;;3.00;;
75554;SDS011;66087;53.126;17.960;2023-05-10T17:23:57;7.20;;;3.20;;
75554;SDS011;66087;53.126;17.960;2023-05-10T17:26:24;5.40;;;3.10;;
75554;SDS011;66087;53.126;17.960;2023-05-10T17:28:52;5.50;;;3.10;;
75554;SDS011;66087;53.126;17.960;2023-05-10T17:31:20;5.30;;;3.00;;
75554;SDS011;66087;53.126;17.960;2023-05-10T17:33:47;4.60;;;2.70;;
75554;SDS011;66087;53.126;17.960;2023-05-10T17:36:14;4.30;;;3.10;;
75554;SDS011;66087;53.126;17.960;2023-05-10T17:38:40;4.60;;;2.80;;
75554;SDS011;66087;53.126;17.960;2023-05-10T17:41:10;4.30;;;2.60;;
75554;SDS011;66087;53.126;17.960;2023-05-10T17:43:37;4.90;;;2.80;;
75554;SDS011;66087;53.126;17.960;2023-05-10T17:46:04;6.50;;;2.90;;
75554;SDS011;66087;53.126;17.960;2023-05-10T17:48:31;4.40;;;2.60;;
75554;SDS011;66087;53.126;17.960;2023-05-10T17:50:57;4.40;;;2.60;;
75554;SDS011;66087;53.126;17.960;2023-05-10T17:53:24;5.10;;;2.70;;
75554;SDS011;66087;53.126;17.960;2023-05-10T17:55:51;5.30;;;2.90;;
75554;SDS011;66087;53.126;17.960;2023-05-10T17:58:18;8.00;;;3.00;;
75554;SDS011;66087;53.126;17.960;2023-05-10T18:00:44;6.50;;;2.90;;
75554;SDS011;66087;53.126;17.960;2023-05-10T18:03:13;5.40;;;2.50;;
75554;SDS011;66087;53.126;17.960;2023-05-10T18:05:40;6.10;;;2.40;;
75554;SDS011;66087;53.126;17.960;2023-05-10T18:08:06;5.30;;;2.70;;
75554;SDS011;66087;53.126;17.960;2023-05-10T18:10:35;4.40;;;2.50;;
75554;SDS011;66087;53.126;17.960;2023-05-10T18:13:02;5.20;;;2.20;;
75554;SDS011;66087;53.126;17.960;2023-05-10T18:15:32;5.30;;;2.20;;
75554;SDS011;66087;53.126;17.960;2023-05-10T18:18:00;5.40;;;2.20;;
75554;SDS011;66087;53.126;17.960;2023-05-10T18:20:28;7.70;;;2.70;;
75554;SDS011;66087;53.126;17.960;2023-05-10T18:22:58;5.20;;;2.50;;
75554;SDS011;66087;53.126;17.960;2023-05-10T18:25:27;4.00;;;2.40;;
75554;SDS011;66087;53.126;17.960;2023-05-10T18:27:55;3.90;;;2.10;;
75554;SDS011;66087;53.126;17.960;2023-05-10T18:30:22;6.00;;;3.20;;
75554;SDS011;66087;53.126;17.960;2023-05-10T18:32:49;6.50;;;3.30;;
75554;SDS011;66087;53.126;17.960;2023-05-10T18:35:16;6.70;;;3.50;;
75554;SDS011;66087;53.126;17.960;2023-05-10T18:37:42;6.50;;;2.70;;
75554;SDS011;66087;53.126;17.960;2023-05-10T18:40:09;7.70;;;3.30;;
75554;SDS011;66087;53.126;17.960;2023-05-10T18:42:40;6.40;;;2.80;;
75554;SDS011;66087;53.126;17.960;2023-05-10T18:45:08;5.60;;;3.30;;
75554;SDS011;66087;53.126;17.960;2023-05-10T18:47:36;4.50;;;2.60;;
75554;SDS011;66087;53.126;17.960;2023-05-10T18:50:05;8.70;;;2.80;;
75554;SDS011;66087;53.126;17.960;2023-05-10T18:52:33;6.70;;;2.80;;
75554;SDS011;66087;53.126;17.960;2023-05-10T18:55:03;7.00;;;2.70;;
75554;SDS011;66087;53.126;17.960;2023-05-10T18:57:32;5.00;;;2.20;;
75554;SDS011;66087;53.126;17.960;2023-05-10T19:00:05;5.80;;;2.40;;
75554;SDS011;66087;53.126;17.960;2023-05-10T19:02:34;8.40;;;3.00;;
75554;SDS011;66087;53.126;17.960;2023-05-10T19:05:01;6.40;;;2.60;;
75554;SDS011;66087;53.126;17.960;2023-05-10T19:07:28;7.20;;;2.70;;
75554;SDS011;66087;53.126;17.960;2023-05-10T19:09:55;6.30;;;2.90;;
75554;SDS011;66087;53.126;17.960;2023-05-10T19:12:24;7.00;;;3.00;;
75554;SDS011;66087;53.126;17.960;2023-05-10T19:14:51;5.80;;;2.40;;
75554;SDS011;66087;53.126;17.960;2023-05-10T19:17:17;6.50;;;2.60;;
75554;SDS011;66087;53.126;17.960;2023-05-10T19:19:45;8.50;;;2.70;;
75554;SDS011;66087;53.126;17.960;2023-05-10T19:22:12;8.00;;;3.30;;
75554;SDS011;66087;53.126;17.960;2023-05-10T19:24:41;6.40;;;2.60;;
75554;SDS011;66087;53.126;17.960;2023-05-10T19:27:08;5.30;;;2.60;;
75554;SDS011;66087;53.126;17.960;2023-05-10T19:29:34;5.50;;;2.50;;
75554;SDS011;66087;53.126;17.960;2023-05-10T19:32:01;8.60;;;2.70;;
75554;SDS011;66087;53.126;17.960;2023-05-10T19:34:31;6.20;;;2.90;;
75554;SDS011;66087;53.126;17.960;2023-05-10T19:36:57;5.30;;;2.20;;
75554;SDS011;66087;53.126;17.960;2023-05-10T19:39:24;6.10;;;2.50;;
75554;SDS011;66087;53.126;17.960;2023-05-10T19:41:51;6.20;;;2.60;;
75554;SDS011;66087;53.126;17.960;2023-05-10T19:44:18;5.40;;;2.80;;
75554;SDS011;66087;53.126;17.960;2023-05-10T19:46:45;7.30;;;2.50;;
75554;SDS011;66087;53.126;17.960;2023-05-10T19:49:14;6.00;;;2.20;;
75554;SDS011;66087;53.126;17.960;2023-05-10T19:51:41;6.60;;;2.50;;
75554;SDS011;66087;53.126;17.960;2023-05-10T19:54:08;5.70;;;2.90;;
75554;SDS011;66087;53.126;17.960;2023-05-10T19:56:35;7.10;;;2.20;;
75554;SDS011;66087;53.126;17.960;2023-05-10T19:59:02;6.60;;;2.60;;
75554;SDS011;66087;53.126;17.960;2023-05-10T20:01:33;7.60;;;2.70;;
75554;SDS011;66087;53.126;17.960;2023-05-10T20:04:07;5.40;;;2.20;;
75554;SDS011;66087;53.126;17.960;2023-05-10T20:06:35;5.50;;;2.00;;
75554;SDS011;66087;53.126;17.960;2023-05-10T20:09:04;7.20;;;2.40;;
75554;SDS011;66087;53.126;17.960;2023-05-10T20:11:32;5.50;;;2.90;;
75554;SDS011;66087;53.126;17.960;2023-05-10T20:13:59;5.40;;;2.40;;
75554;SDS011;66087;53.126;17.960;2023-05-10T20:16:26;6.60;;;2.40;;
75554;SDS011;66087;53.126;17.960;2023-05-10T20:18:53;5.10;;;2.40;;
75554;SDS011;66087;53.126;17.960;2023-05-10T20:21:20;6.70;;;2.20;;
75554;SDS011;66087;53.126;17.960;2023-05-10T20:23:47;6.20;;;2.50;;
75554;SDS011;66087;53.126;17.960;2023-05-10T20:26:15;6.20;;;2.20;;
75554;SDS011;66087;53.126;17.960;2023-05-10T20:28:42;4.20;;;2.20;;
75554;SDS011;66087;53.126;17.960;2023-05-10T20:31:09;6.90;;;2.20;;
75554;SDS011;66087;53.126;17.960;2023-05-10T20:33:40;5.20;;;1.90;;
75554;SDS011;66087;53.126;17.960;2023-05-10T20:36:07;4.40;;;2.30;;
75554;SDS011;66087;53.126;17.960;2023-05-10T20:38:35;7.80;;;2.40;;
75554;SDS011;66087;53.126;17.960;2023-05-10T20:41:03;5.00;;;1.90;;
75554;SDS011;66087;53.126;17.960;2023-05-10T20:43:29;7.50;;;2.70;;
75554;SDS011;66087;53.126;17.960;2023-05-10T20:45:57;8.10;;;2.10;;
75554;SDS011;66087;53.126;17.960;2023-05-10T20:48:30;5.40;;;2.30;;
75554;SDS011;66087;53.126;17.960;2023-05-10T20:50:59;7.90;;;2.80;;
75554;SDS011;66087;53.126;17.960;2023-05-10T20:53:28;7.60;;;2.50;;
75554;SDS011;66087;53.126;17.960;2023-05-10T20:55:55;7.40;;;2.20;;
75554;SDS011;66087;53.126;17.960;2023-05-10T20:58:22;5.70;;;2.30;;
75554;SDS011;66087;53.126;17.960;2023-05-10T21:00:49;7.50;;;2.80;;
75554;SDS011;66087;53.126;17.960;2023-05-10T21:03:15;7.10;;;3.00;;
75554;SDS011;66087;53.126;17.960;2023-05-10T21:05:42;7.80;;;2.50;;
75554;SDS011;66087;53.126;17.960;2023-05-10T21:08:09;6.00;;;2.40;;
75554;SDS011;66087;53.126;17.960;2023-05-10T21:10:35;6.40;;;2.70;;
75554;SDS011;66087;53.126;17.960;2023-05-10T21:13:02;5.30;;;2.70;;
75554;SDS011;66087;53.126;17.960;2023-05-10T21:15:29;5.80;;;2.30;;
75554;SDS011;66087;53.126;17.960;2023-05-10T21:17:55;6.20;;;2.70;;
75554;SDS011;66087;53.126;17.960;2023-05-10T21:20:25;8.10;;;2.50;;
75554;SDS011;66087;53.126;17.960;2023-05-10T21:22:53;5.00;;;2.50;;
75554;SDS011;66087;53.126;17.960;2023-05-10T21:25:20;8.00;;;2.00;;
75554;SDS011;66087;53.126;17.960;2023-05-10T21:27:50;6.40;;;2.30;;
75554;SDS011;66087;53.126;17.960;2023-05-10T21:30:17;6.10;;;2.40;;
75554;SDS011;66087;53.126;17.960;2023-05-10T21:32:44;6.70;;;2.40;;
75554;SDS011;66087;53.126;17.960;2023-05-10T21:35:11;6.60;;;2.40;;
75554;SDS011;66087;53.126;17.960;2023-05-10T21:37:38;5.50;;;2.50;;
75554;SDS011;66087;53.126;17.960;2023-05-10T21:40:04;4.60;;;2.50;;
75554;SDS011;66087;53.126;17.960;2023-05-10T21:42:31;6.30;;;2.40;;
75554;SDS011;66087;53.126;17.960;2023-05-10T21:44:58;7.90;;;1.90;;
75554;SDS011;66087;53.126;17.960;2023-05-10T21:47:25;4.70;;;2.20;;
75554;SDS011;66087;53.126;17.960;2023-05-10T21:49:51;6.30;;;2.20;;
75554;SDS011;66087;53.126;17.960;2023-05-10T21:52:18;5.30;;;2.20;;
75554;SDS011;66087;53.126;17.960;2023-05-10T21:54:45;5.50;;;2.00;;
75554;SDS011;66087;53.126;17.960;2023-05-10T21:57:12;3.60;;;1.70;;
75554;SDS011;66087;53.126;17.960;2023-05-10T21:59:38;5.00;;;2.20;;
75554;SDS011;66087;53.126;17.960;2023-05-10T22:02:05;5.20;;;2.40;;
75554;SDS011;66087;53.126;17.960;2023-05-10T22:04:32;6.90;;;2.10;;
75554;SDS011;66087;53.126;17.960;2023-05-10T22:06:58;4.90;;;2.10;;
75554;SDS011;66087;53.126;17.960;2023-05-10T22:09:25;7.00;;;2.40;;
75554;SDS011;66087;53.126;17.960;2023-05-10T22:11:52;5.30;;;2.40;;
75554;SDS011;66087;53.126;17.960;2023-05-10T22:14:18;6.20;;;2.60;;
75554;SDS011;66087;53.126;17.960;2023-05-10T22:16:48;4.60;;;2.00;;
75554;SDS011;66087;53.126;17.960;2023-05-10T22:19:16;5.70;;;1.90;;
75554;SDS011;66087;53.126;17.960;2023-05-10T22:21:43;5.00;;;2.20;;
75554;SDS011;66087;53.126;17.960;2023-05-10T22:24:10;5.40;;;2.20;;
75554;SDS011;66087;53.126;17.960;2023-05-10T22:26:36;5.60;;;2.30;;
75554;SDS011;66087;53.126;17.960;2023-05-10T22:29:03;5.80;;;2.00;;
75554;SDS011;66087;53.126;17.960;2023-05-10T22:31:29;4.30;;;2.20;;
75554;SDS011;66087;53.126;17.960;2023-05-10T22:33:56;5.70;;;2.40;;
75554;SDS011;66087;53.126;17.960;2023-05-10T22:36:23;5.70;;;3.00;;
75554;SDS011;66087;53.126;17.960;2023-05-10T22:38:50;5.30;;;2.70;;
75554;SDS011;66087;53.126;17.960;2023-05-10T22:41:16;7.20;;;2.30;;
75554;SDS011;66087;53.126;17.960;2023-05-10T22:43:43;4.90;;;2.20;;
75554;SDS011;66087;53.126;17.960;2023-05-10T22:46:10;5.10;;;2.10;;
75554;SDS011;66087;53.126;17.960;2023-05-10T22:48:37;6.80;;;2.50;;
75554;SDS011;66087;53.126;17.960;2023-05-10T22:51:04;6.00;;;2.40;;
75554;SDS011;66087;53.126;17.960;2023-05-10T22:53:33;7.20;;;2.50;;
75554;SDS011;66087;53.126;17.960;2023-05-10T22:56:00;4.80;;;2.30;;
75554;SDS011;66087;53.126;17.960;2023-05-10T22:58:30;6.60;;;2.50;;
75554;SDS011;66087;53.126;17.960;2023-05-10T23:00:57;7.10;;;2.40;;
75554;SDS011;66087;53.126;17.960;2023-05-10T23:03:23;5.20;;;2.60;;
75554;SDS011;66087;53.126;17.960;2023-05-10T23:05:51;6.00;;;2.40;;
75554;SDS011;66087;53.126;17.960;2023-05-10T23:08:17;5.70;;;2.70;;
75554;SDS011;66087;53.126;17.960;2023-05-10T23:10:44;4.80;;;2.40;;
75554;SDS011;66087;53.126;17.960;2023-05-10T23:13:12;7.80;;;2.40;;
75554;SDS011;66087;53.126;17.960;2023-05-10T23:15:39;6.40;;;2.90;;
75554;SDS011;66087;53.126;17.960;2023-05-10T23:18:06;7.30;;;2.70;;
75554;SDS011;66087;53.126;17.960;2023-05-10T23:20:33;7.20;;;3.10;;
75554;SDS011;66087;53.126;17.960;2023-05-10T23:23:00;4.00;;;2.00;;
75554;SDS011;66087;53.126;17.960;2023-05-10T23:25:27;7.40;;;2.50;;
75554;SDS011;66087;53.126;17.960;2023-05-10T23:27:53;5.10;;;2.00;;
75554;SDS011;66087;53.126;17.960;2023-05-10T23:30:20;5.20;;;2.30;;
75554;SDS011;66087;53.126;17.960;2023-05-10T23:32:47;3.60;;;1.40;;
75554;SDS011;66087;53.126;17.960;2023-05-10T23:35:13;5.80;;;2.50;;
75554;SDS011;66087;53.126;17.960;2023-05-10T23:37:40;6.50;;;2.60;;
75554;SDS011;66087;53.126;17.960;2023-05-10T23:40:07;6.50;;;2.90;;
75554;SDS011;66087;53.126;17.960;2023-05-10T23:42:35;5.80;;;3.70;;
75554;SDS011;66087;53.126;17.960;2023-05-10T23:45:01;6.00;;;2.40;;
75554;SDS011;66087;53.126;17.960;2023-05-10T23:47:28;5.70;;;2.30;;
75554;SDS011;66087;53.126;17.960;2023-05-10T23:49:57;4.80;;;2.10;;
75554;SDS011;66087;53.126;17.960;2023-05-10T23:52:26;6.00;;;2.30;;
75554;SDS011;66087;53.126;17.960;2023-05-10T23:54:52;5.40;;;2.70;;
75554;SDS011;66087;53.126;17.960;2023-05-10T23:57:22;5.10;;;2.40;;
75554;SDS011;66087;53.126;17.960;2023-05-10T23:59:48;6.20;;;2.20;;
